Language selection

My Weather Profile Weather Topics  | 

Atlantic - Newfoundland: Past 24 Hour Conditions

 

West Chedabucto Bay - 44489

08:00 AM AST 26 November 2022Buoy position: 45.49N 61.14W
Disclaimer

This table is a summary of hourly weather conditions for the past 24 hours.
Please note that these observations might not always be representative of weather conditions over their associated marine area.

Date / Time
(AST)
Wind(knots) Wave height(m) Wave period(s) Pressure(kPa) Air tempC) Water tempC)
26 November 2022
8:00 S 10 gust 12 1.2 5.9 98.4 8 8
7:00 ESE 19 gust 24 1.6 5.4 98.4 9 8
6:00 ESE 38 gust 46 1.7 5.2 98.3 9 8
5:00 SE 29 gust 36 1.6 5.0 98.8 9 8
4:00 ESE 30 gust 37 1.5 4.7 99.0 8 8
3:00 SE 28 gust 33 1.4 4.7 99.4 8 8
2:00 SE 30 gust 36 1.3 4.2 99.6 8 8
1:00 SE 28 gust 33 1.3 4.4 99.8 8 8
0:00 SE 27 gust 33 1.2 4.1 100.0 8 8
25 November 2022
23:00 SE 24 gust 29 0.9 3.6 100.3 8 8
22:00 SE 19 gust 24 0.7 3.3 100.5 8 8
21:00 SSE 16 gust 19 0.6 3.0 100.7 8 8
20:00 SE 16 gust 19 0.6 2.9 100.8 7 8
19:00 SSE 19 gust 23 0.5 2.5 101.0 6 8
18:00 SSE 15 gust 17 0.3 2.3 101.1 5 8
17:00 S 12 gust 16 0.3 2.4 101.3 4 8
16:00 SSW 12 gust 16 0.4 2.4 101.4 4 8
15:00 SSW 9 gust 12 0.3 2.3 101.5 3 8
14:00 SW 10 gust 14 0.3 2.3 101.6 2 8
13:00 SW 11 gust 15 0.3 2.3 101.7 2 8
12:00 WSW 10 gust 12 0.2 2.3 101.8 1 8
11:00 WSW 10 gust 12 0.3 2.3 101.9 0 8
10:00 WSW 13 gust 15 0.3 2.4 102.0 0 8
9:00 W 9 gust 12 0.3 2.4 102.0 -1 8
8:00 W 11 gust 14 0.4 2.4 102.0 -1 8

Zoom-in to make a selection

Map of Atlantic - Newfoundland marine weather areas Banquereau - 44139 East Chedabucto Bay - 44488 West Chedabucto Bay - 44489 Blanc-Sablon Airport Cap Whittle Chevery Natashquan Airport Heath Point Îles de la Madeleine Airport Miscou Island Eskasoni (First Nations) Grand Étang Ingonish Beach North Mountain St.Paul Island J.A. Douglas McCurdy Sydney Airport Charlottetown Airport East Point North Cape Argentia Berry Hill Bonavista Burgeo Cape Race Corner Brook Daniel's Harbour Englee Ferolle Point La Scie Port aux Basques Sagona Island St. Anthony Airport St. John's Int'l Airport St. Lawrence Stephenville Airport Twillingate Winterland Branch Hill Wreckhouse Grates Cove Pool's Island Marticot Island Long Pond Cartwright Airport Mary's Harbour
Legend:
buoy Buoy
land station Land Station

Atlantic - Newfoundland Area

Another Region

What we are doing

Date modified: